Time;durP1;ratioP1;P1;durP2;ratioP2;P2;SDS_P1;SDS_P2;PMS_P1;PMS_P2;Temp;Humidity;BMP_temperature;BMP_pressure;BME280_temperature;BME280_humidity;BME280_pressure;Samples;Min_cycle;Max_cycle;Signal;HPM_P1;HPM_P2
2023/06/11 00:01:23;;;;;;;0.20;0.20;;;19.40;99.90;;;;;;4839394;29;20037;-82
2023/06/11 00:03:52;;;;;;;0.20;0.20;;;19.40;99.90;;;;;;4838998;29;20058;-83
2023/06/11 00:06:23;;;;;;;0.20;0.20;;;19.30;99.90;;;;;;4833222;29;20059;-82
2023/06/11 00:08:53;;;;;;;0.20;0.20;;;19.40;99.90;;;;;;4838787;29;20052;-82
2023/06/11 00:11:20;;;;;;;0.20;0.20;;;19.40;99.90;;;;;;4839578;29;20140;-82
2023/06/11 00:13:46;;;;;;;0.20;0.20;;;19.40;99.90;;;;;;4840189;29;20053;-83
2023/06/11 00:16:15;;;;;;;0.20;0.20;;;19.40;99.90;;;;;;4839137;29;20049;-83
2023/06/11 00:18:42;;;;;;;0.20;0.20;;;19.40;99.90;;;;;;4855411;29;20046;-83
2023/06/11 00:21:08;;;;;;;0.20;0.20;;;19.40;99.90;;;;;;4839274;29;20037;-82
2023/06/11 00:23:36;;;;;;;0.20;0.20;;;19.40;99.90;;;;;;4852612;29;20050;-83
2023/06/11 00:26:04;;;;;;;0.20;0.20;;;19.50;99.90;;;;;;4832234;29;20081;-83
2023/06/11 00:28:30;;;;;;;0.20;0.20;;;19.50;99.90;;;;;;4840058;29;20568;-82
2023/06/11 00:30:55;;;;;;;0.20;0.20;;;19.40;99.90;;;;;;4838140;29;20046;-82
2023/06/11 00:33:21;;;;;;;0.20;0.20;;;19.50;99.90;;;;;;4851035;29;20046;-83
2023/06/11 00:35:47;;;;;;;0.20;0.20;;;19.50;99.90;;;;;;4859836;29;20042;-83
2023/06/11 00:38:13;;;;;;;0.20;0.20;;;19.50;99.90;;;;;;4858830;29;20049;-83
2023/06/11 00:40:38;;;;;;;0.17;0.17;;;19.40;99.90;;;;;;4853354;29;20148;-84
2023/06/11 00:43:04;;;;;;;0.20;0.20;;;19.40;99.90;;;;;;4849769;29;20045;-83
2023/06/11 00:45:32;;;;;;;0.13;0.13;;;19.40;99.90;;;;;;4854672;29;20096;-84
2023/06/11 00:47:57;;;;;;;0.20;0.20;;;19.40;99.90;;;;;;4839163;29;20049;-83
2023/06/11 00:50:23;;;;;;;0.20;0.20;;;19.40;99.90;;;;;;4853512;29;20407;-83
2023/06/11 00:52:49;;;;;;;0.20;0.20;;;19.30;99.90;;;;;;4838633;29;20077;-83
2023/06/11 00:55:15;;;;;;;0.20;0.20;;;19.30;99.90;;;;;;4854395;29;20349;-83
2023/06/11 00:57:41;;;;;;;0.20;0.20;;;19.20;99.90;;;;;;4836130;29;20049;-83
2023/06/11 01:00:12;;;;;;;0.20;0.20;;;19.20;99.90;;;;;;4839659;29;20085;-83
2023/06/11 01:02:53;;;;;;;;;;;19.10;99.90;;;;;;4837494;29;20126;-82
2023/06/11 01:05:22;;;;;;;0.20;0.20;;;19.10;99.90;;;;;;4838917;29;19924;-83
2023/06/11 01:07:51;;;;;;;0.10;0.10;;;19.10;99.90;;;;;;4825987;29;20502;-83
2023/06/11 01:10:21;;;;;;;0.20;0.20;;;19.00;99.90;;;;;;4853216;29;20101;-82
2023/06/11 01:12:48;;;;;;;0.20;0.20;;;19.00;99.90;;;;;;4859009;29;20495;-82
2023/06/11 01:15:14;;;;;;;0.15;0.15;;;19.00;99.90;;;;;;4843706;29;20461;-82
2023/06/11 01:17:54;;;;;;;0.20;0.20;;;19.00;99.90;;;;;;4842358;29;20124;-82
2023/06/11 01:20:35;;;;;;;0.10;0.10;;;18.90;99.90;;;;;;4857716;29;20073;-82
2023/06/11 01:23:09;;;;;;;0.20;0.20;;;18.90;99.90;;;;;;4833392;29;20069;-82
2023/06/11 01:26:07;;;;;;;0.15;0.15;;;18.80;99.90;;;;;;4841895;29;20092;-82
2023/06/11 01:28:35;;;;;;;0.10;0.10;;;18.80;99.90;;;;;;4824358;29;20144;-82
2023/06/11 01:31:08;;;;;;;0.20;0.20;;;18.80;99.90;;;;;;4859077;29;20364;-83
2023/06/11 01:33:35;;;;;;;0.20;0.20;;;18.70;99.90;;;;;;4858532;29;20516;-82
2023/06/11 01:36:01;;;;;;;0.10;0.10;;;18.70;99.90;;;;;;4842085;29;20096;-82
2023/06/11 01:38:30;;;;;;;0.10;0.10;;;18.70;99.90;;;;;;4843000;29;20072;-82
2023/06/11 01:40:58;;;;;;;0.20;0.20;;;18.70;99.90;;;;;;4840798;29;20056;-83
2023/06/11 01:43:25;;;;;;;0.20;0.20;;;18.60;99.90;;;;;;4858684;29;20096;-81
2023/06/11 01:45:51;;;;;;;0.20;0.20;;;18.60;99.90;;;;;;4840998;29;20520;-82
2023/06/11 01:48:17;;;;;;;0.20;0.20;;;18.60;99.90;;;;;;4841205;29;20096;-82
2023/06/11 01:50:43;;;;;;;0.20;0.20;;;18.60;99.90;;;;;;4842373;29;20073;-82
2023/06/11 01:53:10;;;;;;;0.20;0.20;;;18.60;99.90;;;;;;4842811;29;20081;-82
2023/06/11 01:55:36;;;;;;;0.20;0.20;;;18.60;99.90;;;;;;4840518;29;20473;-82
2023/06/11 01:58:02;;;;;;;0.17;0.17;;;18.60;99.90;;;;;;4841996;29;20049;-82
2023/06/11 02:00:28;;;;;;;0.20;0.20;;;18.60;99.90;;;;;;4841767;29;20411;-83
2023/06/11 02:02:54;;;;;;;0.20;0.20;;;18.60;99.90;;;;;;4841475;29;20057;-82
2023/06/11 02:05:20;;;;;;;0.20;0.20;;;18.60;99.90;;;;;;4841648;29;20050;-82
2023/06/11 02:07:45;;;;;;;0.10;0.10;;;18.60;99.90;;;;;;4855197;29;20128;-82
2023/06/11 02:10:11;;;;;;;0.20;0.20;;;18.60;99.90;;;;;;4847515;29;20121;-82
2023/06/11 02:12:37;;;;;;;0.20;0.20;;;18.60;99.90;;;;;;4858837;29;20053;-82
2023/06/11 02:15:04;;;;;;;0.20;0.20;;;18.50;99.90;;;;;;4858581;29;20085;-82
2023/06/11 02:17:30;;;;;;;0.20;0.20;;;18.50;99.90;;;;;;4841047;29;20053;-81
2023/06/11 02:19:56;;;;;;;0.20;0.20;;;18.60;99.90;;;;;;4858939;29;20553;-82
2023/06/11 02:22:21;;;;;;;0.20;0.20;;;18.50;99.90;;;;;;4840200;29;20085;-81
2023/06/11 02:24:47;;;;;;;0.10;0.10;;;18.60;99.90;;;;;;4840973;29;20076;-82
2023/06/11 02:27:13;;;;;;;0.20;0.20;;;18.50;99.90;;;;;;4856455;29;20044;-82
2023/06/11 02:29:38;;;;;;;0.10;0.10;;;18.50;99.90;;;;;;4840290;29;20132;-82
2023/06/11 02:32:05;;;;;;;0.20;0.20;;;18.50;99.90;;;;;;4841432;29;20100;-81
2023/06/11 02:34:31;;;;;;;0.20;0.20;;;18.50;99.90;;;;;;4856520;29;20041;-81
2023/06/11 02:36:57;;;;;;;0.20;0.20;;;18.50;99.90;;;;;;4845729;29;20047;-82
2023/06/11 02:39:22;;;;;;;0.20;0.20;;;18.50;99.90;;;;;;4865517;29;20145;-82
2023/06/11 02:41:48;;;;;;;0.20;0.20;;;18.50;99.90;;;;;;4841128;29;20045;-83
2023/06/11 02:44:14;;;;;;;0.20;0.20;;;18.50;99.90;;;;;;4840638;29;20057;-82
2023/06/11 02:46:39;;;;;;;0.10;0.10;;;18.50;99.90;;;;;;4840736;29;20053;-82
2023/06/11 02:49:05;;;;;;;0.20;0.20;;;18.40;99.90;;;;;;4839938;29;20131;-82
2023/06/11 02:51:31;;;;;;;0.20;0.20;;;18.40;99.90;;;;;;4857357;29;20641;-82
2023/06/11 02:53:57;;;;;;;0.20;0.20;;;18.40;99.90;;;;;;4842329;29;20046;-82
2023/06/11 02:56:22;;;;;;;0.20;0.20;;;18.40;99.90;;;;;;4854940;29;20075;-83
2023/06/11 02:58:49;;;;;;;0.10;0.10;;;18.40;99.90;;;;;;4841189;29;20094;-82
2023/06/11 03:01:14;;;;;;;0.15;0.15;;;18.40;99.90;;;;;;4858186;29;20120;-82
2023/06/11 03:03:40;;;;;;;0.20;0.20;;;18.40;99.90;;;;;;4856272;29;20467;-83
2023/06/11 03:06:06;;;;;;;0.20;0.20;;;18.40;99.90;;;;;;4840188;29;20206;-83
2023/06/11 03:08:31;;;;;;;0.20;0.20;;;18.40;99.90;;;;;;4859203;29;20073;-83
2023/06/11 03:10:57;;;;;;;0.13;0.13;;;18.30;99.90;;;;;;4840045;29;20049;-83
2023/06/11 03:13:23;;;;;;;0.15;0.15;;;18.30;99.90;;;;;;4856529;29;20512;-83
2023/06/11 03:15:49;;;;;;;0.10;0.10;;;18.30;99.90;;;;;;4841505;29;20037;-81
2023/06/11 03:18:15;;;;;;;0.20;0.20;;;18.30;99.90;;;;;;4853749;29;20056;-82
2023/06/11 03:20:41;;;;;;;0.10;0.10;;;18.30;99.90;;;;;;4856176;29;20120;-81
2023/06/11 03:23:06;;;;;;;0.20;0.20;;;18.30;99.90;;;;;;4837450;29;20042;-82
2023/06/11 03:25:32;;;;;;;0.20;0.20;;;18.20;99.90;;;;;;4838836;29;20053;-82
2023/06/11 03:27:58;;;;;;;0.20;0.20;;;18.20;99.90;;;;;;4840119;29;20056;-83
2023/06/11 03:30:23;;;;;;;0.10;0.10;;;18.20;99.90;;;;;;4839883;29;20306;-82
2023/06/11 03:32:49;;;;;;;0.10;0.10;;;18.20;99.90;;;;;;4837074;29;20037;-82
2023/06/11 03:35:15;;;;;;;0.17;0.17;;;18.20;99.90;;;;;;4854576;29;20049;-82
2023/06/11 03:37:41;;;;;;;0.10;0.10;;;18.20;99.90;;;;;;4839540;29;20090;-82
2023/06/11 03:40:07;;;;;;;0.10;0.10;;;18.20;99.90;;;;;;4840524;29;20505;-82
2023/06/11 03:42:33;;;;;;;0.20;0.20;;;18.20;99.90;;;;;;4840287;29;20045;-81
2023/06/11 03:44:59;;;;;;;0.20;0.20;;;18.20;99.90;;;;;;4841683;29;20057;-82
2023/06/11 03:47:24;;;;;;;0.10;0.10;;;18.20;99.90;;;;;;4839183;29;20064;-81
2023/06/11 03:49:51;;;;;;;0.10;0.10;;;18.20;99.90;;;;;;4838835;29;20072;-81
2023/06/11 03:52:17;;;;;;;0.20;0.20;;;18.10;99.90;;;;;;4856563;29;20717;-82
2023/06/11 03:54:42;;;;;;;0.20;0.20;;;18.10;99.90;;;;;;4836545;29;20040;-82
2023/06/11 03:57:08;;;;;;;0.13;0.13;;;18.20;99.90;;;;;;4838820;29;20033;-81
2023/06/11 03:59:34;;;;;;;0.10;0.10;;;18.20;99.90;;;;;;4853999;29;20045;-82
2023/06/11 04:02:00;;;;;;;0.20;0.20;;;18.10;99.90;;;;;;4857041;29;20051;-82
2023/06/11 04:04:26;;;;;;;0.15;0.15;;;18.20;99.90;;;;;;4855141;29;20054;-81
2023/06/11 04:06:51;;;;;;;0.13;0.13;;;18.10;99.90;;;;;;4855616;29;20422;-83
2023/06/11 04:09:17;;;;;;;0.20;0.20;;;18.20;99.90;;;;;;4860250;29;20264;-82
2023/06/11 04:11:43;;;;;;;0.20;0.20;;;18.20;99.90;;;;;;4840991;29;20077;-82
2023/06/11 04:14:08;;;;;;;0.20;0.20;;;18.20;99.90;;;;;;4838899;29;20042;-81
2023/06/11 04:16:34;;;;;;;0.20;0.20;;;18.20;99.90;;;;;;4857629;29;20526;-82
2023/06/11 04:18:59;;;;;;;0.20;0.20;;;18.20;99.90;;;;;;4854907;29;20080;-82
2023/06/11 04:21:25;;;;;;;0.20;0.20;;;18.30;99.90;;;;;;4839256;29;20410;-82
2023/06/11 04:23:51;;;;;;;0.10;0.10;;;18.30;99.90;;;;;;4855616;29;20418;-82
2023/06/11 04:26:19;;;;;;;0.10;0.10;;;18.20;99.90;;;;;;4854590;29;20056;-81
2023/06/11 04:28:45;;;;;;;0.20;0.20;;;18.30;99.90;;;;;;4838737;29;20057;-82
2023/06/11 04:31:14;;;;;;;0.20;0.20;;;18.30;99.90;;;;;;4839245;29;20447;-81
2023/06/11 04:33:40;;;;;;;0.20;0.20;;;18.30;99.90;;;;;;4826293;29;20049;-82
2023/06/11 04:36:07;;;;;;;0.20;0.20;;;18.30;99.90;;;;;;4836992;29;20042;-82
2023/06/11 04:38:37;;;;;;;0.10;0.10;;;18.30;99.90;;;;;;4835286;29;20061;-82
2023/06/11 04:41:11;;;;;;;0.20;0.20;;;18.30;99.90;;;;;;4839936;29;20639;-82
2023/06/11 04:43:37;;;;;;;0.15;0.15;;;18.30;99.90;;;;;;4860437;29;20502;-82
2023/06/11 04:46:03;;;;;;;0.20;0.20;;;18.40;99.90;;;;;;4840044;29;20082;-81
2023/06/11 04:48:31;;;;;;;0.10;0.10;;;18.40;99.90;;;;;;4839845;29;20156;-82
2023/06/11 04:50:59;;;;;;;0.20;0.20;;;18.40;99.90;;;;;;4840036;29;20053;-82
2023/06/11 04:53:27;;;;;;;0.10;0.10;;;18.40;99.90;;;;;;4860323;29;20071;-81
2023/06/11 04:55:57;;;;;;;0.20;0.20;;;18.40;99.90;;;;;;4843993;29;20052;-83
2023/06/11 04:58:27;;;;;;;0.10;0.10;;;18.40;99.90;;;;;;4842212;29;20053;-83
2023/06/11 05:00:57;;;;;;;0.20;0.20;;;18.50;99.90;;;;;;4860466;29;20076;-82
2023/06/11 05:03:29;;;;;;;0.20;0.20;;;18.50;99.90;;;;;;4840690;29;20052;-83
2023/06/11 05:05:55;;;;;;;0.20;0.20;;;18.60;99.90;;;;;;4842343;29;20311;-82
2023/06/11 05:08:24;;;;;;;0.20;0.20;;;18.60;99.90;;;;;;4844840;29;20041;-82
2023/06/11 05:10:57;;;;;;;0.20;0.20;;;18.60;99.90;;;;;;4830968;29;20046;-82
2023/06/11 05:13:26;;;;;;;0.20;0.20;;;18.60;99.90;;;;;;4851593;29;20041;-82
2023/06/11 05:15:53;;;;;;;0.20;0.20;;;18.70;99.90;;;;;;4843307;29;20049;-82
2023/06/11 05:18:20;;;;;;;0.20;0.20;;;18.70;99.90;;;;;;4857097;29;20406;-82
2023/06/11 05:20:48;;;;;;;0.20;0.20;;;18.70;99.90;;;;;;4859163;29;20577;-83
2023/06/11 05:23:15;;;;;;;0.10;0.10;;;18.80;99.90;;;;;;4842313;29;20053;-81
2023/06/11 05:25:46;;;;;;;0.20;0.20;;;18.80;99.90;;;;;;4843290;29;20053;-82
2023/06/11 05:28:13;;;;;;;0.20;0.20;;;18.90;99.90;;;;;;4858109;29;20052;-82
2023/06/11 05:30:43;;;;;;;0.20;0.20;;;18.90;99.90;;;;;;4859809;29;20068;-82
2023/06/11 05:33:10;;;;;;;0.13;0.13;;;18.90;99.90;;;;;;4840983;29;20160;-82
2023/06/11 05:35:36;;;;;;;0.20;0.20;;;19.00;99.90;;;;;;4840023;29;20072;-82
2023/06/11 05:38:06;;;;;;;0.20;0.20;;;19.00;99.90;;;;;;4842031;29;20264;-81
2023/06/11 05:40:33;;;;;;;0.20;0.20;;;19.00;99.90;;;;;;4840652;29;20061;-82
2023/06/11 05:42:59;;;;;;;0.20;0.20;;;19.10;99.90;;;;;;4847669;29;20084;-82
2023/06/11 05:45:25;;;;;;;0.13;0.13;;;19.20;99.90;;;;;;4868246;29;20108;-81
2023/06/11 05:47:51;;;;;;;0.20;0.20;;;19.20;99.90;;;;;;4830423;29;20053;-82
2023/06/11 05:50:17;;;;;;;0.20;0.20;;;19.20;99.90;;;;;;4856186;29;20101;-81
2023/06/11 05:52:44;;;;;;;0.13;0.13;;;19.30;99.90;;;;;;4855850;29;20041;-82
2023/06/11 05:55:10;;;;;;;0.10;0.10;;;19.30;99.90;;;;;;4843181;29;20171;-81
2023/06/11 05:57:36;;;;;;;0.10;0.10;;;19.30;99.90;;;;;;4841796;29;20141;-82
2023/06/11 06:00:02;;;;;;;0.20;0.20;;;19.40;99.90;;;;;;4856053;29;20057;-81
2023/06/11 06:02:28;;;;;;;0.20;0.20;;;19.40;99.90;;;;;;4840718;29;20041;-82
2023/06/11 06:04:54;;;;;;;0.15;0.15;;;19.40;99.90;;;;;;4841544;29;20053;-83
2023/06/11 06:07:20;;;;;;;0.10;0.10;;;19.50;99.90;;;;;;4842183;29;20041;-83
2023/06/11 06:09:46;;;;;;;0.20;0.20;;;19.50;99.90;;;;;;4857773;29;20056;-82
2023/06/11 06:12:11;;;;;;;0.20;0.20;;;19.60;99.90;;;;;;4839798;29;20046;-83
2023/06/11 06:14:37;;;;;;;0.20;0.20;;;19.60;99.90;;;;;;4840683;29;20053;-84
2023/06/11 06:17:03;;;;;;;0.10;0.10;;;19.60;99.90;;;;;;4841528;29;20079;-83
2023/06/11 06:19:28;;;;;;;0.20;0.20;;;19.70;99.90;;;;;;4840057;29;20136;-83
2023/06/11 06:21:54;;;;;;;0.10;0.10;;;19.80;99.90;;;;;;4841734;29;20090;-83
2023/06/11 06:24:20;;;;;;;0.20;0.20;;;19.80;99.90;;;;;;4843410;29;20512;-83
2023/06/11 06:26:47;;;;;;;0.20;0.20;;;19.90;99.90;;;;;;4839776;29;20046;-83
2023/06/11 06:29:13;;;;;;;0.20;0.20;;;19.90;99.90;;;;;;4841847;29;20049;-83
2023/06/11 06:31:42;;;;;;;0.20;0.20;;;20.00;99.90;;;;;;4860952;29;20037;-83
2023/06/11 06:34:08;;;;;;;0.20;0.20;;;20.00;99.90;;;;;;4841250;29;20508;-83
2023/06/11 06:36:35;;;;;;;0.20;0.20;;;20.00;99.90;;;;;;4839758;29;20128;-82
2023/06/11 06:39:01;;;;;;;0.15;0.15;;;20.10;99.90;;;;;;4853797;29;20099;-82
2023/06/11 06:41:27;;;;;;;0.20;0.20;;;20.10;99.90;;;;;;4833866;29;20693;-81
2023/06/11 06:43:53;;;;;;;0.20;0.20;;;20.20;99.90;;;;;;4835467;29;20060;-81
2023/06/11 06:46:19;;;;;;;0.20;0.20;;;20.30;99.90;;;;;;4855457;29;20488;-81
2023/06/11 06:48:44;;;;;;;0.20;0.20;;;20.30;99.90;;;;;;4842076;29;20045;-81
2023/06/11 06:51:10;;;;;;;0.20;0.20;;;20.30;99.90;;;;;;4841939;29;20049;-82
2023/06/11 06:53:36;;;;;;;0.20;0.20;;;20.40;99.90;;;;;;4840341;29;20546;-82
2023/06/11 06:56:05;;;;;;;0.20;0.20;;;20.40;99.90;;;;;;4841135;29;20054;-83
2023/06/11 06:58:32;;;;;;;0.20;0.20;;;20.50;99.90;;;;;;4840748;29;20050;-83
2023/06/11 07:00:58;;;;;;;0.20;0.20;;;20.60;99.90;;;;;;4857072;29;20549;-82
2023/06/11 07:03:23;;;;;;;0.20;0.20;;;20.60;99.90;;;;;;4861150;29;20053;-83
2023/06/11 07:05:49;;;;;;;0.20;0.20;;;20.70;99.90;;;;;;4839286;29;20137;-82
2023/06/11 07:08:15;;;;;;;0.20;0.20;;;20.70;99.90;;;;;;4857633;29;20474;-81
2023/06/11 07:10:47;;;;;;;0.20;0.20;;;20.80;99.90;;;;;;4857584;29;20049;-81
2023/06/11 07:13:12;;;;;;;0.20;0.20;;;20.80;99.90;;;;;;4854713;29;20743;-81
2023/06/11 07:15:38;;;;;;;0.20;0.20;;;20.90;99.90;;;;;;4858936;29;20049;-82
2023/06/11 07:18:04;;;;;;;0.20;0.20;;;21.00;99.90;;;;;;4839529;29;20022;-81
2023/06/11 07:20:30;;;;;;;0.10;0.10;;;21.00;99.90;;;;;;4856091;29;20045;-81
2023/06/11 07:22:55;;;;;;;0.20;0.20;;;21.10;99.90;;;;;;4858560;29;20470;-83
2023/06/11 07:25:21;;;;;;;0.20;0.20;;;21.10;99.90;;;;;;4836015;29;20047;-82
2023/06/11 07:27:46;;;;;;;0.20;0.20;;;21.20;99.90;;;;;;4855527;29;20045;-81
2023/06/11 07:30:13;;;;;;;0.20;0.20;;;21.30;99.90;;;;;;4855346;29;20140;-80
2023/06/11 07:32:38;;;;;;;0.20;0.20;;;21.30;99.90;;;;;;4874509;29;20055;-79
2023/06/11 07:35:04;;;;;;;0.20;0.20;;;21.40;99.90;;;;;;4842724;29;20120;-79
2023/06/11 07:37:31;;;;;;;0.20;0.20;;;21.40;99.90;;;;;;4836567;29;20050;-82
2023/06/11 07:39:57;;;;;;;0.20;0.20;;;21.50;99.90;;;;;;4836747;29;20041;-81
2023/06/11 07:42:23;;;;;;;0.20;0.20;;;21.60;99.90;;;;;;4836214;29;20972;-81
2023/06/11 07:44:48;;;;;;;0.20;0.20;;;21.60;99.90;;;;;;4838508;29;20053;-80
2023/06/11 07:47:14;;;;;;;0.20;0.20;;;21.70;99.80;;;;;;4852482;29;20049;-79
2023/06/11 07:49:40;;;;;;;0.20;0.20;;;21.80;99.80;;;;;;4847151;29;20045;-82
2023/06/11 07:52:06;;;;;;;0.20;0.20;;;21.80;99.70;;;;;;4850988;29;20577;-79
2023/06/11 07:54:32;;;;;;;0.20;0.20;;;21.90;99.50;;;;;;4853454;29;20081;-80
2023/06/11 07:56:58;;;;;;;0.20;0.20;;;22.00;99.50;;;;;;4854580;29;20463;-79
2023/06/11 07:59:24;;;;;;;0.20;0.20;;;22.00;99.50;;;;;;4834557;29;20492;-79
2023/06/11 08:01:49;;;;;;;0.20;0.20;;;22.10;99.40;;;;;;4837167;29;20052;-82
2023/06/11 08:04:15;;;;;;;0.17;0.17;;;22.20;99.30;;;;;;4833776;29;20141;-79
2023/06/11 08:06:43;;;;;;;0.20;0.20;;;22.20;99.30;;;;;;4856772;29;20459;-79
2023/06/11 08:09:09;;;;;;;0.20;0.20;;;22.30;99.30;;;;;;4837023;29;20173;-80
2023/06/11 08:11:35;;;;;;;0.20;0.20;;;22.30;99.20;;;;;;4854885;29;20052;-81
2023/06/11 08:14:00;;;;;;;0.20;0.20;;;22.40;99.00;;;;;;4839149;29;20049;-82
2023/06/11 08:16:26;;;;;;;0.20;0.20;;;22.50;98.90;;;;;;4838073;29;20109;-80
2023/06/11 08:18:53;;;;;;;0.20;0.20;;;22.50;98.80;;;;;;4855907;29;20049;-80
2023/06/11 08:21:18;;;;;;;0.22;0.22;;;22.60;98.70;;;;;;4838733;29;20049;-79
2023/06/11 08:23:44;;;;;;;0.20;0.20;;;22.60;98.70;;;;;;4855091;29;20050;-79
2023/06/11 08:26:10;;;;;;;0.20;0.20;;;22.70;98.80;;;;;;4856176;29;21685;-78
2023/06/11 08:28:36;;;;;;;0.30;0.30;;;22.70;98.60;;;;;;4841199;29;20474;-79
2023/06/11 08:31:02;;;;;;;0.20;0.20;;;22.80;98.50;;;;;;4865521;29;20105;-81
2023/06/11 08:33:27;;;;;;;0.20;0.20;;;22.80;98.40;;;;;;4853346;29;20049;-80
2023/06/11 08:35:53;;;;;;;0.20;0.20;;;22.90;98.40;;;;;;4839744;29;20060;-80
2023/06/11 08:38:19;;;;;;;0.20;0.20;;;23.00;98.30;;;;;;4834408;29;20501;-80
2023/06/11 08:40:45;;;;;;;0.20;0.20;;;23.10;98.20;;;;;;4854063;29;20120;-80
2023/06/11 08:43:11;;;;;;;0.20;0.20;;;23.10;98.10;;;;;;4853053;29;20053;-81
2023/06/11 08:45:37;;;;;;;0.20;0.20;;;23.20;97.90;;;;;;4840167;29;20451;-82
2023/06/11 08:48:04;;;;;;;0.20;0.20;;;23.30;97.80;;;;;;4838058;29;20043;-82
2023/06/11 08:50:33;;;;;;;0.20;0.20;;;23.30;97.90;;;;;;4839536;29;20052;-82
2023/06/11 08:53:02;;;;;;;0.20;0.20;;;23.40;97.80;;;;;;4839302;29;20060;-81
2023/06/11 08:55:30;;;;;;;0.20;0.20;;;23.40;97.80;;;;;;4838967;29;20128;-81
2023/06/11 08:57:57;;;;;;;0.20;0.20;;;23.50;97.80;;;;;;4836324;29;20157;-80
2023/06/11 09:00:22;;;;;;;0.30;0.30;;;23.60;97.60;;;;;;4839980;29;20115;-79
2023/06/11 09:02:49;;;;;;;0.20;0.20;;;23.70;97.50;;;;;;4834379;29;20084;-79
2023/06/11 09:05:15;;;;;;;0.20;0.20;;;23.70;97.30;;;;;;4832083;29;20593;-80
2023/06/11 09:07:50;;;;;;;0.20;0.20;;;23.80;97.20;;;;;;4819652;29;20141;-86
2023/06/11 09:10:17;;;;;;;0.20;0.20;;;23.90;97.20;;;;;;4841287;29;20232;-81
2023/06/11 09:12:43;;;;;;;0.20;0.20;;;23.90;97.10;;;;;;4848590;29;20037;-80
2023/06/11 09:15:09;;;;;;;0.20;0.20;;;24.00;97.00;;;;;;4834750;29;20061;-79
2023/06/11 09:17:40;;;;;;;0.20;0.20;;;24.10;96.90;;;;;;4846436;29;20056;-80
2023/06/11 09:20:11;;;;;;;0.20;0.20;;;24.00;96.80;;;;;;4830439;29;20057;-80
2023/06/11 09:22:38;;;;;;;0.20;0.20;;;24.20;96.70;;;;;;4834297;29;20046;-79
2023/06/11 09:25:07;;;;;;;0.20;0.20;;;24.20;96.50;;;;;;4837046;29;21650;-79
2023/06/11 09:27:34;;;;;;;0.20;0.20;;;24.30;96.40;;;;;;4841650;29;20046;-79
2023/06/11 09:30:16;;;;;;;0.20;0.20;;;24.30;96.30;;;;;;4824764;29;20682;-79
2023/06/11 09:32:44;;;;;;;0.20;0.20;;;24.40;96.30;;;;;;4833310;29;20053;-80
2023/06/11 09:35:11;;;;;;;0.20;0.20;;;24.50;96.20;;;;;;4850384;29;20128;-79
2023/06/11 09:37:49;;;;;;;0.28;0.28;;;24.50;96.00;;;;;;4828333;29;20055;-80
2023/06/11 09:40:17;;;;;;;0.20;0.20;;;24.60;95.90;;;;;;4844021;29;20132;-78
2023/06/11 09:42:44;;;;;;;0.20;0.20;;;24.60;95.90;;;;;;4848829;29;20094;-80
2023/06/11 09:45:19;;;;;;;0.20;0.20;;;24.70;95.80;;;;;;4849052;29;20050;-80
2023/06/11 09:47:46;;;;;;;0.30;0.30;;;24.80;95.70;;;;;;4825483;29;20082;-80
2023/06/11 09:50:16;;;;;;;0.32;0.32;;;24.90;95.70;;;;;;4830349;29;20045;-80
2023/06/11 09:52:43;;;;;;;0.20;0.20;;;25.00;95.80;;;;;;4830209;29;20056;-79
2023/06/11 09:55:10;;;;;;;0.20;0.20;;;25.00;95.50;;;;;;4837480;29;20049;-80
2023/06/11 09:57:37;;;;;;;0.20;0.20;;;25.10;95.30;;;;;;4839834;29;20494;-80
2023/06/11 10:00:06;;;;;;;0.20;0.20;;;25.10;95.20;;;;;;4839237;29;20056;-80
2023/06/11 10:02:33;;;;;;;0.20;0.20;;;25.20;95.10;;;;;;4840605;29;20049;-80
2023/06/11 10:04:59;;;;;;;0.30;0.30;;;25.30;95.20;;;;;;4854213;29;20076;-80
2023/06/11 10:07:25;;;;;;;0.30;0.30;;;25.30;95.10;;;;;;4856926;29;20045;-80
2023/06/11 10:09:52;;;;;;;0.25;0.25;;;25.40;95.10;;;;;;4834050;29;20064;-79
2023/06/11 10:12:20;;;;;;;0.20;0.20;;;25.50;95.00;;;;;;4829027;29;20522;-79
2023/06/11 10:14:53;;;;;;;0.20;0.20;;;25.50;94.80;;;;;;4837278;29;20052;-79
2023/06/11 10:17:21;;;;;;;0.20;0.20;;;25.60;94.60;;;;;;4839838;29;20128;-80
2023/06/11 10:19:48;;;;;;;0.30;0.30;;;25.60;94.60;;;;;;4837716;29;20510;-80
2023/06/11 10:22:21;;;;;;;0.20;0.20;;;25.70;94.60;;;;;;4839795;29;20125;-80
2023/06/11 10:25:00;;;;;;;0.20;0.20;;;25.70;94.70;;;;;;4832466;29;20045;-80
2023/06/11 10:27:35;;;;;;;0.20;0.20;;;25.80;94.50;;;;;;4850114;29;20538;-80
2023/06/11 10:30:01;;;;;;;0.20;0.20;;;25.90;94.50;;;;;;4848613;29;20124;-80
2023/06/11 10:32:27;;;;;;;0.22;0.22;;;26.00;94.40;;;;;;4849188;29;20033;-81
2023/06/11 10:35:03;;;;;;;0.20;0.20;;;26.00;94.30;;;;;;4847407;29;20045;-81
2023/06/11 10:37:28;;;;;;;0.22;0.22;;;26.10;94.30;;;;;;4849199;29;20069;-82
2023/06/11 10:39:55;;;;;;;0.25;0.25;;;26.10;94.20;;;;;;4828184;29;20084;-80
2023/06/11 10:42:26;;;;;;;0.20;0.20;;;26.20;94.20;;;;;;4828436;29;20522;-80
2023/06/11 10:44:57;;;;;;;0.20;0.20;;;26.20;94.00;;;;;;4849827;29;20502;-80
2023/06/11 10:47:23;;;;;;;0.20;0.20;;;26.30;93.90;;;;;;4834145;29;20052;-81
2023/06/11 10:49:49;;;;;;;0.20;0.20;;;26.30;93.90;;;;;;4835354;29;20049;-80
2023/06/11 10:52:15;;;;;;;0.20;0.20;;;26.40;93.70;;;;;;4840187;29;20084;-80
2023/06/11 10:54:43;;;;;;;0.20;0.20;;;26.40;93.50;;;;;;4832223;29;20117;-80
2023/06/11 10:57:10;;;;;;;0.20;0.20;;;26.40;93.30;;;;;;4830982;29;20050;-80
2023/06/11 10:59:36;;;;;;;0.20;0.20;;;26.60;93.20;;;;;;4841046;29;20053;-80
2023/06/11 11:02:02;;;;;;;0.20;0.20;;;26.60;93.00;;;;;;4840254;29;20046;-80
2023/06/11 11:04:28;;;;;;;0.20;0.20;;;26.70;92.80;;;;;;4838128;29;20501;-80
2023/06/11 11:07:08;;;;;;;0.20;0.20;;;26.70;92.70;;;;;;4836433;29;20073;-80
2023/06/11 11:09:34;;;;;;;0.30;0.30;;;26.80;92.40;;;;;;4823970;29;20403;-80
2023/06/11 11:11:59;;;;;;;0.30;0.30;;;26.90;92.30;;;;;;4843294;29;20056;-80
2023/06/11 11:14:27;;;;;;;0.20;0.20;;;26.90;92.40;;;;;;4841049;29;20625;-80
2023/06/11 11:16:54;;;;;;;0.20;0.20;;;27.00;92.30;;;;;;4841814;29;20301;-80
2023/06/11 11:19:26;;;;;;;0.20;0.20;;;27.10;92.10;;;;;;4839287;29;20076;-80
2023/06/11 11:21:52;;;;;;;0.20;0.20;;;27.20;92.00;;;;;;4842408;29;20468;-80
2023/06/11 11:24:19;;;;;;;0.20;0.20;;;27.20;91.80;;;;;;4837914;29;20053;-80
2023/06/11 11:26:45;;;;;;;0.20;0.20;;;27.30;91.70;;;;;;4826431;29;20489;-80
2023/06/11 11:29:12;;;;;;;0.20;0.20;;;27.40;91.70;;;;;;4844595;29;20056;-80
2023/06/11 11:31:39;;;;;;;0.30;0.30;;;27.50;90.90;;;;;;4854679;29;20487;-80
2023/06/11 11:34:05;;;;;;;0.20;0.20;;;27.50;90.20;;;;;;4857167;29;20391;-80
2023/06/11 11:36:31;;;;;;;0.20;0.20;;;27.60;90.00;;;;;;4857531;29;20125;-80
2023/06/11 11:39:08;;;;;;;0.20;0.20;;;27.70;89.90;;;;;;4840152;29;20056;-80
2023/06/11 11:41:52;;;;;;;0.20;0.20;;;27.80;89.40;;;;;;4840483;29;20063;-80
2023/06/11 11:44:19;;;;;;;0.20;0.20;;;27.90;88.00;;;;;;4856677;29;20061;-79
2023/06/11 11:46:46;;;;;;;0.20;0.20;;;28.00;87.50;;;;;;4841568;29;20148;-80
2023/06/11 11:49:12;;;;;;;0.20;0.20;;;28.10;86.60;;;;;;4855262;29;20128;-80
2023/06/11 11:51:45;;;;;;;0.20;0.20;;;28.10;87.10;;;;;;4846080;29;20128;-79
2023/06/11 11:54:14;;;;;;;0.28;0.28;;;28.20;86.50;;;;;;4855354;29;20051;-80
2023/06/11 11:56:41;;;;;;;0.20;0.20;;;28.30;84.90;;;;;;4856472;29;20045;-80
2023/06/11 11:59:18;;;;;;;0.20;0.20;;;28.40;85.60;;;;;;4838966;29;20045;-80
2023/06/11 12:01:56;;;;;;;0.20;0.20;;;28.40;85.30;;;;;;4856651;29;20048;-79
2023/06/11 12:04:40;;;;;;;0.20;0.20;;;28.60;84.40;;;;;;4840326;29;20261;-79
2023/06/11 12:07:10;;;;;;;0.20;0.20;;;28.60;84.90;;;;;;4823358;29;20045;-80
2023/06/11 12:09:38;;;;;;;0.30;0.30;;;28.70;84.60;;;;;;4844130;29;20056;-79
2023/06/11 12:12:04;;;;;;;0.20;0.20;;;28.90;83.70;;;;;;4856566;29;20041;-80
2023/06/11 12:14:30;;;;;;;0.28;0.28;;;28.90;83.20;;;;;;4838674;29;20094;-79
2023/06/11 12:16:56;;;;;;;0.82;0.43;;;29.10;82.70;;;;;;4841747;29;20065;-79
2023/06/11 12:19:21;;;;;;;0.20;0.20;;;29.10;80.90;;;;;;4838262;29;20049;-80
2023/06/11 12:21:47;;;;;;;0.20;0.20;;;29.20;81.90;;;;;;4840961;29;20059;-81
2023/06/11 12:24:17;;;;;;;0.20;0.20;;;29.20;81.80;;;;;;4835753;29;20067;-80
2023/06/11 12:26:50;;;;;;;0.20;0.20;;;29.30;81.50;;;;;;4836425;29;20041;-80
2023/06/11 12:29:16;;;;;;;0.20;0.20;;;29.30;80.90;;;;;;4856627;29;20550;-80
2023/06/11 12:31:42;;;;;;;0.20;0.20;;;29.40;80.30;;;;;;4838994;29;20048;-80
2023/06/11 12:34:14;;;;;;;0.20;0.20;;;29.50;80.00;;;;;;4839689;29;20041;-80
2023/06/11 12:36:41;;;;;;;0.20;0.20;;;29.60;79.90;;;;;;4856366;29;20056;-80
2023/06/11 12:39:07;;;;;;;0.20;0.20;;;29.60;78.50;;;;;;4840199;29;20057;-80
2023/06/11 12:41:33;;;;;;;0.20;0.20;;;29.70;78.90;;;;;;4840722;29;20097;-80
2023/06/11 12:43:59;;;;;;;0.20;0.20;;;29.80;78.60;;;;;;4839274;29;20260;-80
2023/06/11 12:46:27;;;;;;;0.20;0.20;;;;;;;;;;4839640;29;20057;-80
2023/06/11 12:48:53;;;;;;;0.20;0.20;;;29.80;77.30;;;;;;4839788;29;20422;-80